createdAt,value
2019-03-19T00:00:56.354Z,4.70
2019-03-19T00:03:25.581Z,5.30
2019-03-19T00:05:54.953Z,5.33
2019-03-19T00:08:24.435Z,6.33
2019-03-19T00:10:53.685Z,5.93
2019-03-19T00:13:23.659Z,5.57
2019-03-19T00:15:56.080Z,5.50
2019-03-19T00:18:25.264Z,5.47
2019-03-19T00:20:55.465Z,5.93
2019-03-19T00:23:24.728Z,6.33
2019-03-19T00:25:54.148Z,6.07
2019-03-19T00:28:23.314Z,7.00
2019-03-19T00:30:52.617Z,6.27
2019-03-19T00:33:22.061Z,5.87
2019-03-19T00:35:51.507Z,5.67
2019-03-19T00:38:20.987Z,6.30
2019-03-19T00:40:50.187Z,6.20
2019-03-19T00:43:20.789Z,6.43
2019-03-19T00:45:51.581Z,5.97
2019-03-19T00:48:22.620Z,6.20
2019-03-19T00:50:53.275Z,6.73
2019-03-19T00:53:22.709Z,5.93
2019-03-19T00:55:52.324Z,5.90
2019-03-19T00:58:21.913Z,6.00
2019-03-19T01:00:51.263Z,6.13
2019-03-19T01:03:20.549Z,6.37
2019-03-19T01:05:50.475Z,6.30
2019-03-19T01:08:20.645Z,5.63
2019-03-19T01:10:50.311Z,5.30
2019-03-19T01:13:19.588Z,4.90
2019-03-19T01:15:50.444Z,5.33
2019-03-19T01:18:20.080Z,5.30
2019-03-19T01:20:49.888Z,4.93
2019-03-19T01:23:19.362Z,5.23
2019-03-19T01:25:55.509Z,5.43
2019-03-19T01:28:20.256Z,5.67
2019-03-19T01:30:49.594Z,5.63
2019-03-19T01:33:18.800Z,5.40
2019-03-19T01:35:47.990Z,5.83
2019-03-19T01:38:17.792Z,6.07
2019-03-19T01:40:47.686Z,6.10
2019-03-19T01:43:23.529Z,6.37
2019-03-19T01:45:55.000Z,5.83
2019-03-19T01:48:28.062Z,6.20
2019-03-19T01:50:57.956Z,6.43
2019-03-19T01:53:27.383Z,6.03
2019-03-19T01:56:04.840Z,6.40
2019-03-19T01:58:28.030Z,6.47
2019-03-19T02:00:58.804Z,6.30
2019-03-19T02:03:29.455Z,6.23
2019-03-19T02:06:00.595Z,6.77
2019-03-19T02:08:31.296Z,6.67
2019-03-19T02:11:00.746Z,6.47
2019-03-19T02:13:34.218Z,6.83
2019-03-19T02:16:04.469Z,6.67
2019-03-19T02:18:34.769Z,7.17
2019-03-19T02:21:04.725Z,6.53
2019-03-19T02:23:33.982Z,6.00
2019-03-19T02:26:03.864Z,6.13
2019-03-19T02:28:33.062Z,6.40
2019-03-19T02:31:02.236Z,6.23
2019-03-19T02:33:32.664Z,6.47
2019-03-19T02:36:02.814Z,6.80
2019-03-19T02:38:31.994Z,5.77
2019-03-19T02:41:01.141Z,6.07
2019-03-19T02:43:30.708Z,6.47
2019-03-19T02:45:59.862Z,5.90
2019-03-19T02:48:29.823Z,6.57
2019-03-19T02:51:00.345Z,6.43
2019-03-19T02:53:29.822Z,6.57
2019-03-19T02:55:59.807Z,6.53
2019-03-19T02:58:31.297Z,6.93
2019-03-19T03:01:01.999Z,7.30
2019-03-19T03:03:32.370Z,6.43
2019-03-19T03:06:01.620Z,6.63
2019-03-19T03:08:31.157Z,6.87
2019-03-19T03:11:00.641Z,7.27
2019-03-19T03:13:30.070Z,7.40
2019-03-19T03:16:00.138Z,7.37
2019-03-19T03:18:30.298Z,7.30
2019-03-19T03:20:59.565Z,7.50
2019-03-19T03:23:28.976Z,7.20
2019-03-19T03:25:58.922Z,7.07
2019-03-19T03:28:29.135Z,7.37
2019-03-19T03:30:59.452Z,7.00
2019-03-19T03:33:28.627Z,6.83
2019-03-19T03:35:58.077Z,6.53
2019-03-19T03:38:29.297Z,6.70
2019-03-19T03:40:58.485Z,5.93
2019-03-19T03:43:28.245Z,6.53
2019-03-19T03:45:58.284Z,5.90
2019-03-19T03:48:27.720Z,6.17
2019-03-19T03:50:58.092Z,7.43
2019-03-19T03:53:27.212Z,6.90
2019-03-19T03:55:56.742Z,6.97
2019-03-19T03:58:26.200Z,7.23
2019-03-19T04:00:56.173Z,6.57
2019-03-19T04:03:31.340Z,7.47
2019-03-19T04:06:00.823Z,8.40
2019-03-19T04:08:30.807Z,7.63
2019-03-19T04:11:01.099Z,7.13
2019-03-19T04:13:30.228Z,7.90
2019-03-19T04:16:01.469Z,7.43
2019-03-19T04:18:31.922Z,7.50
2019-03-19T04:21:01.876Z,7.63
2019-03-19T04:23:31.432Z,7.33
2019-03-19T04:26:00.893Z,7.97
2019-03-19T04:28:30.849Z,7.47
2019-03-19T04:31:02.167Z,7.57
2019-03-19T04:33:32.447Z,7.27
2019-03-19T04:36:02.011Z,7.33
2019-03-19T04:38:32.314Z,7.40
2019-03-19T04:41:01.901Z,7.23
2019-03-19T04:43:31.936Z,7.83
2019-03-19T04:46:03.429Z,7.47
2019-03-19T04:48:32.596Z,7.17
2019-03-19T04:51:01.898Z,8.13
2019-03-19T04:53:31.081Z,7.40
2019-03-19T04:56:02.646Z,7.73
2019-03-19T04:58:31.865Z,7.60
2019-03-19T05:01:03.217Z,8.00
2019-03-19T05:03:34.435Z,7.30
2019-03-19T05:06:04.770Z,7.50
2019-03-19T05:08:34.000Z,8.83
2019-03-19T05:11:06.228Z,7.80
2019-03-19T05:13:39.121Z,8.03
2019-03-19T05:16:09.446Z,7.73
2019-03-19T05:18:38.656Z,8.30
2019-03-19T05:21:08.742Z,7.53
2019-03-19T05:23:40.073Z,7.90
2019-03-19T05:26:09.248Z,7.77
2019-03-19T05:28:38.576Z,7.43
2019-03-19T05:31:07.760Z,7.47
2019-03-19T05:33:36.963Z,7.50
2019-03-19T05:36:07.833Z,6.97
2019-03-19T05:38:38.060Z,8.30
2019-03-19T05:41:08.265Z,7.73
2019-03-19T05:43:37.465Z,7.80
2019-03-19T05:46:08.170Z,7.97
2019-03-19T05:48:37.420Z,8.70
2019-03-19T05:51:06.608Z,7.87
2019-03-19T05:53:35.829Z,7.57
2019-03-19T05:56:05.276Z,8.23
2019-03-19T05:58:35.424Z,8.53
2019-03-19T06:01:06.867Z,8.67
2019-03-19T06:03:41.501Z,8.40
2019-03-19T06:06:10.690Z,7.83
2019-03-19T06:08:41.763Z,7.93
2019-03-19T06:11:10.926Z,7.13
2019-03-19T06:13:41.053Z,7.37
2019-03-19T06:16:13.152Z,8.60
2019-03-19T06:18:42.560Z,7.73
2019-03-19T06:21:17.164Z,7.80
2019-03-19T06:23:59.159Z,7.80
2019-03-19T06:26:29.024Z,8.40
2019-03-19T06:28:58.401Z,8.27
2019-03-19T06:31:29.666Z,8.77
2019-03-19T06:33:58.826Z,8.53
2019-03-19T06:36:28.840Z,8.37
2019-03-19T06:38:58.023Z,8.43
2019-03-19T06:41:27.477Z,8.07
2019-03-19T06:43:57.415Z,8.60
2019-03-19T06:46:26.662Z,8.27
2019-03-19T06:48:55.833Z,8.90
2019-03-19T06:51:25.132Z,8.13
2019-03-19T06:53:54.585Z,8.70
2019-03-19T06:56:24.561Z,9.20
2019-03-19T06:58:55.066Z,10.00
2019-03-19T07:01:24.329Z,9.80
2019-03-19T07:03:55.869Z,10.67
2019-03-19T07:06:26.332Z,9.83
2019-03-19T07:08:55.529Z,10.50
2019-03-19T07:11:26.734Z,10.87
2019-03-19T07:13:57.557Z,10.33
2019-03-19T07:16:28.626Z,10.77
2019-03-19T07:18:57.782Z,10.80
2019-03-19T07:21:27.017Z,10.13
2019-03-19T07:23:57.267Z,10.30
2019-03-19T07:26:26.473Z,9.97
2019-03-19T07:28:57.082Z,10.47
2019-03-19T07:31:33.407Z,9.50
2019-03-19T07:34:03.685Z,10.33
2019-03-19T07:36:43.408Z,10.27
2019-03-19T07:39:13.655Z,10.37
2019-03-19T07:41:42.860Z,10.20
2019-03-19T07:44:12.394Z,8.83
2019-03-19T07:46:41.615Z,9.43
2019-03-19T07:49:11.894Z,10.77
2019-03-19T07:51:41.083Z,10.17
2019-03-19T07:54:11.913Z,9.80
2019-03-19T07:56:42.126Z,9.70
2019-03-19T07:59:11.671Z,9.83
2019-03-19T08:01:41.154Z,8.97
2019-03-19T08:04:11.580Z,8.77
2019-03-19T08:06:41.572Z,10.33
2019-03-19T08:09:11.868Z,10.13
2019-03-19T08:11:41.706Z,9.60
2019-03-19T08:14:11.272Z,10.50
2019-03-19T08:16:40.852Z,9.87
2019-03-19T08:19:10.673Z,10.17
2019-03-19T08:21:41.059Z,9.33
2019-03-19T08:24:12.789Z,9.17
2019-03-19T08:27:04.458Z,9.67
2019-03-19T08:29:35.718Z,10.20
2019-03-19T08:32:06.477Z,9.20
2019-03-19T08:34:44.924Z,9.37
2019-03-19T08:37:15.641Z,9.60
2019-03-19T08:39:44.835Z,8.70
2019-03-19T08:42:15.446Z,9.50
2019-03-19T08:44:44.758Z,9.00
2019-03-19T08:47:15.226Z,8.70
2019-03-19T08:49:44.778Z,8.23
2019-03-19T08:52:15.591Z,7.80
2019-03-19T08:54:45.087Z,7.13
2019-03-19T08:57:14.898Z,6.40
2019-03-19T08:59:48.732Z,7.60
2019-03-19T09:02:25.256Z,6.07
2019-03-19T09:04:54.539Z,4.77
2019-03-19T09:07:23.826Z,5.20
2019-03-19T09:09:55.168Z,4.60
2019-03-19T09:12:25.488Z,2.60
2019-03-19T09:14:55.763Z,2.63
2019-03-19T09:17:25.563Z,2.80
2019-03-19T09:19:55.178Z,2.27
2019-03-19T09:22:29.553Z,2.30
2019-03-19T09:24:57.131Z,2.57
2019-03-19T09:27:26.594Z,2.40
2019-03-19T09:29:55.971Z,2.37
2019-03-19T09:32:25.467Z,2.60
2019-03-19T09:34:54.980Z,2.20
2019-03-19T09:37:26.170Z,2.40
2019-03-19T09:39:55.427Z,2.00
2019-03-19T09:42:26.616Z,1.90
2019-03-19T09:44:58.655Z,2.00
2019-03-19T09:47:27.971Z,2.20
2019-03-19T09:49:57.532Z,2.33
2019-03-19T09:52:27.087Z,2.37
2019-03-19T09:54:56.349Z,2.47
2019-03-19T09:57:25.825Z,2.77
2019-03-19T09:59:55.020Z,2.83
2019-03-19T10:02:24.157Z,2.23
2019-03-19T10:04:53.719Z,2.67
2019-03-19T10:07:24.575Z,3.13
2019-03-19T10:09:54.577Z,3.23
2019-03-19T10:12:23.735Z,2.80
2019-03-19T10:14:52.930Z,2.80
2019-03-19T10:17:22.217Z,2.40
2019-03-19T10:19:51.606Z,2.47
2019-03-19T10:22:20.873Z,2.53
2019-03-19T10:24:50.308Z,2.77
2019-03-19T10:27:19.839Z,2.63
2019-03-19T10:29:49.007Z,2.60
2019-03-19T10:32:20.156Z,2.23
2019-03-19T10:34:49.646Z,2.40
2019-03-19T10:37:18.860Z,2.67
2019-03-19T10:39:49.882Z,2.40
2019-03-19T10:42:20.522Z,2.07
2019-03-19T10:44:51.607Z,1.80
2019-03-19T10:47:20.881Z,2.27
2019-03-19T10:49:55.847Z,2.07
2019-03-19T10:52:26.471Z,1.57
2019-03-19T10:54:55.923Z,1.90
2019-03-19T10:57:25.216Z,1.80
2019-03-19T11:00:02.316Z,2.10
2019-03-19T11:02:33.167Z,1.90
2019-03-19T11:05:02.343Z,2.00
2019-03-19T11:07:31.341Z,2.10
2019-03-19T11:10:01.312Z,2.10
2019-03-19T11:12:31.129Z,1.90
2019-03-19T11:15:00.385Z,1.87
2019-03-19T11:17:30.380Z,2.00
2019-03-19T11:19:59.669Z,2.20
2019-03-19T11:22:29.863Z,2.30
2019-03-19T11:24:59.226Z,2.03
2019-03-19T11:27:30.107Z,1.87
2019-03-19T11:30:00.242Z,1.97
2019-03-19T11:32:32.478Z,2.10
2019-03-19T11:35:05.982Z,2.10
2019-03-19T11:37:37.386Z,2.10
2019-03-19T11:40:10.209Z,1.90
2019-03-19T11:42:40.802Z,1.87
2019-03-19T11:45:11.424Z,1.90
2019-03-19T11:47:40.623Z,1.67
2019-03-19T11:50:17.180Z,2.20
2019-03-19T11:53:19.406Z,1.90
2019-03-19T11:55:48.903Z,1.87
2019-03-19T11:58:19.182Z,1.80
2019-03-19T12:00:53.101Z,1.90
2019-03-19T12:03:26.069Z,1.90
2019-03-19T12:05:55.242Z,1.80
2019-03-19T12:08:25.871Z,1.67
2019-03-19T12:10:57.347Z,1.87
2019-03-19T12:13:28.883Z,1.70
2019-03-19T12:15:58.823Z,1.70
2019-03-19T12:18:29.877Z,1.97
2019-03-19T12:20:59.559Z,2.10
2019-03-19T12:23:28.998Z,1.87
2019-03-19T12:25:58.953Z,1.70
2019-03-19T12:28:39.006Z,1.80
2019-03-19T12:31:00.454Z,2.43
2019-03-19T12:33:40.126Z,1.60
2019-03-19T12:36:01.615Z,2.00
2019-03-19T12:38:31.378Z,1.77
2019-03-19T12:41:00.931Z,2.27
2019-03-19T12:43:30.939Z,2.50
2019-03-19T12:46:00.719Z,2.00
2019-03-19T12:48:32.914Z,1.80
2019-03-19T12:51:02.118Z,1.77
2019-03-19T12:53:32.062Z,2.23
2019-03-19T12:56:03.943Z,1.90
2019-03-19T12:58:34.897Z,2.17
2019-03-19T13:01:04.361Z,2.00
2019-03-19T13:03:34.459Z,1.70
2019-03-19T13:06:04.373Z,1.80
2019-03-19T13:08:36.378Z,2.20
2019-03-19T13:11:05.668Z,1.93
2019-03-19T13:13:36.906Z,1.77
2019-03-19T13:16:06.407Z,1.67
2019-03-19T13:18:39.233Z,1.90
2019-03-19T13:21:08.773Z,1.93
2019-03-19T13:23:40.638Z,1.60
2019-03-19T13:26:11.345Z,1.90
2019-03-19T13:28:43.367Z,1.70
2019-03-19T13:31:13.779Z,1.73
2019-03-19T13:33:46.701Z,1.90
2019-03-19T13:36:17.026Z,1.40
2019-03-19T13:38:47.684Z,1.43
2019-03-19T13:41:17.181Z,1.83
2019-03-19T13:43:46.893Z,1.60
2019-03-19T13:46:16.112Z,1.40
2019-03-19T13:48:49.566Z,1.50
2019-03-19T13:51:19.510Z,2.20
2019-03-19T13:53:51.191Z,1.80
2019-03-19T13:56:20.923Z,1.53
2019-03-19T13:58:52.388Z,1.77
2019-03-19T14:01:23.884Z,1.37
2019-03-19T14:03:53.086Z,1.57
2019-03-19T14:06:22.256Z,1.40
2019-03-19T14:08:53.687Z,1.67
2019-03-19T14:11:23.217Z,1.40
2019-03-19T14:13:52.423Z,1.30
2019-03-19T14:16:21.991Z,1.67
2019-03-19T14:18:52.498Z,1.60
2019-03-19T14:21:21.974Z,1.40
2019-03-19T14:23:51.365Z,1.43
2019-03-19T14:26:25.211Z,1.57
2019-03-19T14:28:54.397Z,1.40
2019-03-19T14:31:23.867Z,1.50
2019-03-19T14:33:54.657Z,1.60
2019-03-19T14:36:24.171Z,2.43
2019-03-19T14:38:55.421Z,1.90
2019-03-19T14:41:26.031Z,1.57
2019-03-19T14:43:56.135Z,1.80
2019-03-19T14:46:25.347Z,1.60
2019-03-19T14:48:56.421Z,1.60
2019-03-19T14:51:26.531Z,1.67
2019-03-19T14:53:57.409Z,1.27
2019-03-19T14:56:28.354Z,1.33
2019-03-19T14:58:59.050Z,1.73
2019-03-19T15:01:28.311Z,1.67
2019-03-19T15:03:57.816Z,1.80
2019-03-19T15:06:26.981Z,2.00
2019-03-19T15:08:58.181Z,2.00
2019-03-19T15:11:28.402Z,1.70
2019-03-19T15:13:58.481Z,1.63
2019-03-19T15:16:27.651Z,1.40
2019-03-19T15:18:56.832Z,1.80
2019-03-19T15:21:26.461Z,1.60
2019-03-19T15:23:55.747Z,1.50
2019-03-19T15:26:25.219Z,1.53
2019-03-19T15:28:55.633Z,1.60
2019-03-19T15:31:30.139Z,1.90
2019-03-19T15:33:59.788Z,1.80
2019-03-19T15:36:36.024Z,1.60
2019-03-19T15:39:08.147Z,1.60
2019-03-19T15:41:37.323Z,1.80
2019-03-19T15:44:07.568Z,1.70
2019-03-19T15:46:36.737Z,1.80
2019-03-19T15:49:05.932Z,1.80
2019-03-19T15:51:36.182Z,1.80
2019-03-19T15:54:05.477Z,2.00
2019-03-19T15:56:35.053Z,1.70
2019-03-19T15:59:05.372Z,2.03
2019-03-19T16:01:40.349Z,2.20
2019-03-19T16:04:05.767Z,1.97
2019-03-19T16:06:35.740Z,1.90
2019-03-19T16:09:07.782Z,2.07
2019-03-19T16:11:37.002Z,1.97
2019-03-19T16:14:06.513Z,1.80
2019-03-19T16:16:35.710Z,1.80
2019-03-19T16:19:06.149Z,1.87
2019-03-19T16:21:35.435Z,1.93
2019-03-19T16:24:04.854Z,1.87
2019-03-19T16:26:34.395Z,2.00
2019-03-19T16:29:03.814Z,2.20
2019-03-19T16:31:33.377Z,1.97
2019-03-19T16:34:02.909Z,1.90
2019-03-19T16:36:32.346Z,1.63
2019-03-19T16:39:01.518Z,1.73
2019-03-19T16:41:34.031Z,2.37
2019-03-19T16:44:04.343Z,2.80
2019-03-19T16:46:33.991Z,2.10
2019-03-19T16:49:05.400Z,2.30
2019-03-19T16:51:35.095Z,2.20
2019-03-19T16:54:06.071Z,2.30
2019-03-19T16:56:35.762Z,2.67
2019-03-19T16:59:08.527Z,2.43
2019-03-19T17:01:42.085Z,2.40
2019-03-19T17:04:15.491Z,2.50
2019-03-19T17:06:58.957Z,2.43
2019-03-19T17:09:33.308Z,2.50
2019-03-19T17:12:05.435Z,2.30
2019-03-19T17:14:35.350Z,2.40
2019-03-19T17:17:05.146Z,3.30
2019-03-19T17:19:35.635Z,2.40
2019-03-19T17:22:04.855Z,2.47
2019-03-19T17:24:35.512Z,2.20
2019-03-19T17:27:05.308Z,2.93
2019-03-19T17:29:36.299Z,3.87
2019-03-19T17:32:12.774Z,2.93
2019-03-19T17:34:37.183Z,2.50
2019-03-19T17:37:06.398Z,3.13
2019-03-19T17:39:35.564Z,2.57
2019-03-19T17:42:05.860Z,2.97
2019-03-19T17:44:36.146Z,2.87
2019-03-19T17:47:06.961Z,3.00
2019-03-19T17:49:37.497Z,3.13
2019-03-19T17:52:08.699Z,2.63
2019-03-19T17:54:39.961Z,3.20
2019-03-19T17:57:13.712Z,2.70
2019-03-19T17:59:46.490Z,4.80
2019-03-19T18:02:24.050Z,3.87
2019-03-19T18:04:47.002Z,2.53
2019-03-19T18:07:17.534Z,2.50
2019-03-19T18:09:46.699Z,3.40
2019-03-19T18:12:16.184Z,3.60
2019-03-19T18:14:47.850Z,2.80
2019-03-19T18:17:19.183Z,2.60
2019-03-19T18:19:50.328Z,1.93
2019-03-19T18:22:41.007Z,2.30
2019-03-19T18:25:11.605Z,2.60
2019-03-19T18:27:45.439Z,2.70
2019-03-19T18:30:18.776Z,2.60
2019-03-19T18:32:49.132Z,4.20
2019-03-19T18:35:18.571Z,9.00
2019-03-19T18:37:53.210Z,7.47
2019-03-19T18:40:26.096Z,15.67
2019-03-19T18:42:56.323Z,21.47
2019-03-19T18:45:27.304Z,10.43
2019-03-19T18:47:59.057Z,8.87
2019-03-19T18:50:30.443Z,7.53
2019-03-19T18:53:00.605Z,8.70
2019-03-19T18:55:31.872Z,7.30
2019-03-19T18:58:05.541Z,6.37
2019-03-19T19:00:40.550Z,6.73
2019-03-19T19:03:12.262Z,2.50
2019-03-19T19:05:41.451Z,3.13
2019-03-19T19:08:11.633Z,3.20
2019-03-19T19:10:41.108Z,10.27
2019-03-19T19:13:10.526Z,11.33
2019-03-19T19:15:40.391Z,14.17
2019-03-19T19:18:13.595Z,5.97
2019-03-19T19:20:47.235Z,3.80
2019-03-19T19:23:21.931Z,8.90
2019-03-19T19:25:54.772Z,10.40
2019-03-19T19:28:26.725Z,8.37
2019-03-19T19:30:58.857Z,7.03
2019-03-19T19:33:28.149Z,6.97
2019-03-19T19:35:57.927Z,6.40
2019-03-19T19:38:27.376Z,4.33
2019-03-19T19:40:57.292Z,3.63
2019-03-19T19:43:27.377Z,4.00
2019-03-19T19:45:57.729Z,3.17
2019-03-19T19:48:32.153Z,3.90
2019-03-19T19:51:04.193Z,3.60
2019-03-19T19:53:35.730Z,3.10
2019-03-19T19:56:08.679Z,7.00
2019-03-19T19:58:39.679Z,8.63
2019-03-19T20:01:10.625Z,8.27
2019-03-19T20:03:40.585Z,5.77
2019-03-19T20:06:10.334Z,4.27
2019-03-19T20:08:40.290Z,4.53
2019-03-19T20:11:09.729Z,4.17
2019-03-19T20:13:38.876Z,4.30
2019-03-19T20:16:08.115Z,4.60
2019-03-19T20:18:37.336Z,5.40
2019-03-19T20:21:07.733Z,5.40
2019-03-19T20:23:37.226Z,6.97
2019-03-19T20:26:06.515Z,6.07
2019-03-19T20:28:35.958Z,6.00
2019-03-19T20:31:05.466Z,5.00
2019-03-19T20:33:38.824Z,6.13
2019-03-19T20:36:09.686Z,5.63
2019-03-19T20:38:42.684Z,5.40
2019-03-19T20:41:12.646Z,7.10
2019-03-19T20:43:44.036Z,7.40
2019-03-19T20:46:13.760Z,7.47
2019-03-19T20:48:42.956Z,5.73
2019-03-19T20:51:12.147Z,5.33
2019-03-19T20:53:41.467Z,5.50
2019-03-19T20:56:10.651Z,5.87
2019-03-19T20:58:43.688Z,5.77
2019-03-19T21:01:12.522Z,6.07
2019-03-19T21:03:42.566Z,5.83
2019-03-19T21:06:13.972Z,5.20
2019-03-19T21:08:45.624Z,5.93
2019-03-19T21:11:17.799Z,6.07
2019-03-19T21:13:47.523Z,5.93
2019-03-19T21:16:16.992Z,5.17
2019-03-19T21:18:46.986Z,4.63
2019-03-19T21:21:16.508Z,4.07
2019-03-19T21:23:46.402Z,4.67
2019-03-19T21:26:16.917Z,6.07
2019-03-19T21:28:47.489Z,6.80
2019-03-19T21:31:22.292Z,4.90
2019-03-19T21:33:58.507Z,4.67
2019-03-19T21:36:30.615Z,4.80
2019-03-19T21:39:01.481Z,4.67
2019-03-19T21:41:36.375Z,5.63
2019-03-19T21:44:10.125Z,4.90
2019-03-19T21:46:40.512Z,5.17
2019-03-19T21:49:12.315Z,5.60
2019-03-19T21:51:41.891Z,5.37
2019-03-19T21:54:11.099Z,4.80
2019-03-19T21:56:42.895Z,5.17
2019-03-19T21:59:12.161Z,4.73
2019-03-19T22:01:41.346Z,4.40
2019-03-19T22:04:10.525Z,4.13
2019-03-19T22:06:40.692Z,4.07
2019-03-19T22:09:09.900Z,5.43
2019-03-19T22:11:39.074Z,5.53
2019-03-19T22:14:08.630Z,4.97
2019-03-19T22:16:37.814Z,5.37
2019-03-19T22:19:07.244Z,6.53
2019-03-19T22:21:36.666Z,5.97
2019-03-19T22:24:05.873Z,5.13
2019-03-19T22:26:35.079Z,4.70
2019-03-19T22:29:09.660Z,4.47
2019-03-19T22:31:38.983Z,4.87
2019-03-19T22:34:14.097Z,5.20
2019-03-19T22:36:39.954Z,4.80
2019-03-19T22:39:10.390Z,4.97
2019-03-19T22:41:40.309Z,4.63
2019-03-19T22:44:10.186Z,4.30
2019-03-19T22:46:41.962Z,3.47
2019-03-19T22:49:11.683Z,3.33
2019-03-19T22:51:40.885Z,3.60
2019-03-19T22:54:10.350Z,3.60
2019-03-19T22:56:39.816Z,14.90
2019-03-19T22:59:09.050Z,9.37
2019-03-19T23:01:38.684Z,4.20
2019-03-19T23:04:07.880Z,4.33
2019-03-19T23:06:37.472Z,5.33
2019-03-19T23:09:07.867Z,4.27
2019-03-19T23:11:37.377Z,4.23
2019-03-19T23:14:06.842Z,4.33
2019-03-19T23:16:36.036Z,4.73
2019-03-19T23:19:05.306Z,5.40
2019-03-19T23:21:38.338Z,4.90
2019-03-19T23:24:09.032Z,4.80
2019-03-19T23:26:38.587Z,4.43
2019-03-19T23:29:10.913Z,4.03
2019-03-19T23:31:40.949Z,4.00
2019-03-19T23:34:12.685Z,3.93
2019-03-19T23:36:44.015Z,3.33
2019-03-19T23:39:13.189Z,3.40
2019-03-19T23:41:43.044Z,3.13
2019-03-19T23:44:15.669Z,2.90
2019-03-19T23:46:46.003Z,2.93
2019-03-19T23:49:15.715Z,2.90
2019-03-19T23:51:44.927Z,3.07
2019-03-19T23:54:14.647Z,2.77
2019-03-19T23:56:46.066Z,2.80
2019-03-19T23:59:16.089Z,3.03
